sensor_id;sensor_type;location;lat;lon;timestamp;P1;durP1;ratioP1;P2;durP2;ratioP2
39020;SDS011;25188;51.958;5.842;2023-08-17T00:00:15;6.43;;;1.17;;
39020;SDS011;25188;51.958;5.842;2023-08-17T00:02:43;5.70;;;0.80;;
39020;SDS011;25188;51.958;5.842;2023-08-17T00:05:08;4.03;;;0.70;;
39020;SDS011;25188;51.958;5.842;2023-08-17T00:07:34;3.55;;;0.80;;
39020;SDS011;25188;51.958;5.842;2023-08-17T00:10:00;3.40;;;0.70;;
39020;SDS011;25188;51.958;5.842;2023-08-17T00:12:26;3.92;;;1.00;;
39020;SDS011;25188;51.958;5.842;2023-08-17T00:14:52;4.65;;;1.33;;
39020;SDS011;25188;51.958;5.842;2023-08-17T00:17:18;2.80;;;0.90;;
39020;SDS011;25188;51.958;5.842;2023-08-17T00:19:44;4.72;;;0.90;;
39020;SDS011;25188;51.958;5.842;2023-08-17T00:22:09;2.67;;;0.70;;
39020;SDS011;25188;51.958;5.842;2023-08-17T00:24:35;4.05;;;0.80;;
39020;SDS011;25188;51.958;5.842;2023-08-17T00:27:01;2.88;;;1.30;;
39020;SDS011;25188;51.958;5.842;2023-08-17T00:29:26;3.08;;;0.98;;
39020;SDS011;25188;51.958;5.842;2023-08-17T00:31:52;1.90;;;0.70;;
39020;SDS011;25188;51.958;5.842;2023-08-17T00:34:18;3.15;;;0.82;;
39020;SDS011;25188;51.958;5.842;2023-08-17T00:36:44;5.30;;;1.30;;
39020;SDS011;25188;51.958;5.842;2023-08-17T00:39:10;6.57;;;1.15;;
39020;SDS011;25188;51.958;5.842;2023-08-17T00:41:35;4.03;;;0.80;;
39020;SDS011;25188;51.958;5.842;2023-08-17T00:44:01;3.05;;;0.52;;
39020;SDS011;25188;51.958;5.842;2023-08-17T00:46:27;3.55;;;1.02;;
39020;SDS011;25188;51.958;5.842;2023-08-17T00:48:54;2.85;;;0.95;;
39020;SDS011;25188;51.958;5.842;2023-08-17T00:51:21;2.53;;;0.70;;
39020;SDS011;25188;51.958;5.842;2023-08-17T00:53:48;4.75;;;1.00;;
39020;SDS011;25188;51.958;5.842;2023-08-17T00:56:19;5.13;;;0.90;;
39020;SDS011;25188;51.958;5.842;2023-08-17T00:58:46;5.03;;;0.95;;
39020;SDS011;25188;51.958;5.842;2023-08-17T01:01:12;6.30;;;1.40;;
39020;SDS011;25188;51.958;5.842;2023-08-17T01:03:39;3.90;;;1.05;;
39020;SDS011;25188;51.958;5.842;2023-08-17T01:06:06;5.65;;;1.10;;
39020;SDS011;25188;51.958;5.842;2023-08-17T01:08:32;4.15;;;0.90;;
39020;SDS011;25188;51.958;5.842;2023-08-17T01:13:35;4.75;;;1.10;;
39020;SDS011;25188;51.958;5.842;2023-08-17T01:16:10;3.28;;;0.90;;
39020;SDS011;25188;51.958;5.842;2023-08-17T01:18:41;4.90;;;0.80;;
39020;SDS011;25188;51.958;5.842;2023-08-17T01:21:09;6.90;;;1.20;;
39020;SDS011;25188;51.958;5.842;2023-08-17T01:23:38;2.55;;;0.93;;
39020;SDS011;25188;51.958;5.842;2023-08-17T01:26:04;3.97;;;1.25;;
39020;SDS011;25188;51.958;5.842;2023-08-17T01:28:29;3.22;;;0.95;;
39020;SDS011;25188;51.958;5.842;2023-08-17T01:30:57;5.30;;;1.00;;
39020;SDS011;25188;51.958;5.842;2023-08-17T01:38:29;3.42;;;0.80;;
39020;SDS011;25188;51.958;5.842;2023-08-17T01:40:56;3.83;;;1.17;;
39020;SDS011;25188;51.958;5.842;2023-08-17T01:43:23;4.78;;;1.10;;
39020;SDS011;25188;51.958;5.842;2023-08-17T01:45:49;6.00;;;1.25;;
39020;SDS011;25188;51.958;5.842;2023-08-17T01:48:15;4.78;;;1.48;;
39020;SDS011;25188;51.958;5.842;2023-08-17T01:50:41;3.47;;;0.88;;
39020;SDS011;25188;51.958;5.842;2023-08-17T01:53:06;4.63;;;1.08;;
39020;SDS011;25188;51.958;5.842;2023-08-17T01:55:33;4.80;;;0.85;;
39020;SDS011;25188;51.958;5.842;2023-08-17T01:58:00;7.18;;;1.38;;
39020;SDS011;25188;51.958;5.842;2023-08-17T02:00:26;6.65;;;1.60;;
39020;SDS011;25188;51.958;5.842;2023-08-17T02:02:51;6.18;;;1.60;;
39020;SDS011;25188;51.958;5.842;2023-08-17T02:05:17;3.97;;;1.00;;
39020;SDS011;25188;51.958;5.842;2023-08-17T02:07:43;7.28;;;1.08;;
39020;SDS011;25188;51.958;5.842;2023-08-17T02:10:08;4.95;;;1.30;;
39020;SDS011;25188;51.958;5.842;2023-08-17T02:12:34;5.13;;;1.73;;
39020;SDS011;25188;51.958;5.842;2023-08-17T02:15:00;3.03;;;1.05;;
39020;SDS011;25188;51.958;5.842;2023-08-17T02:17:26;4.72;;;1.20;;
39020;SDS011;25188;51.958;5.842;2023-08-17T02:19:52;4.03;;;1.00;;
39020;SDS011;25188;51.958;5.842;2023-08-17T02:22:17;5.30;;;1.40;;
39020;SDS011;25188;51.958;5.842;2023-08-17T02:24:43;3.45;;;1.08;;
39020;SDS011;25188;51.958;5.842;2023-08-17T02:27:09;4.28;;;1.55;;
39020;SDS011;25188;51.958;5.842;2023-08-17T02:29:34;4.82;;;0.93;;
39020;SDS011;25188;51.958;5.842;2023-08-17T02:32:00;7.90;;;1.20;;
39020;SDS011;25188;51.958;5.842;2023-08-17T02:34:26;4.20;;;1.17;;
39020;SDS011;25188;51.958;5.842;2023-08-17T02:36:51;4.82;;;1.08;;
39020;SDS011;25188;51.958;5.842;2023-08-17T02:39:17;4.40;;;1.00;;
39020;SDS011;25188;51.958;5.842;2023-08-17T02:41:43;5.68;;;1.20;;
39020;SDS011;25188;51.958;5.842;2023-08-17T02:44:09;7.75;;;1.10;;
39020;SDS011;25188;51.958;5.842;2023-08-17T02:46:35;6.35;;;1.10;;
39020;SDS011;25188;51.958;5.842;2023-08-17T02:49:01;2.58;;;0.75;;
39020;SDS011;25188;51.958;5.842;2023-08-17T02:51:27;2.67;;;0.88;;
39020;SDS011;25188;51.958;5.842;2023-08-17T02:53:53;5.53;;;1.15;;
39020;SDS011;25188;51.958;5.842;2023-08-17T02:56:19;7.75;;;0.88;;
39020;SDS011;25188;51.958;5.842;2023-08-17T02:58:44;5.28;;;0.82;;
39020;SDS011;25188;51.958;5.842;2023-08-17T03:01:10;4.32;;;1.10;;
39020;SDS011;25188;51.958;5.842;2023-08-17T03:03:35;6.30;;;1.10;;
39020;SDS011;25188;51.958;5.842;2023-08-17T03:06:02;5.72;;;1.30;;
39020;SDS011;25188;51.958;5.842;2023-08-17T03:08:28;3.97;;;1.20;;
39020;SDS011;25188;51.958;5.842;2023-08-17T03:10:54;2.97;;;0.90;;
39020;SDS011;25188;51.958;5.842;2023-08-17T03:13:19;5.28;;;0.82;;
39020;SDS011;25188;51.958;5.842;2023-08-17T03:15:45;3.80;;;0.80;;
39020;SDS011;25188;51.958;5.842;2023-08-17T03:18:11;4.20;;;0.80;;
39020;SDS011;25188;51.958;5.842;2023-08-17T03:20:36;4.45;;;0.90;;
39020;SDS011;25188;51.958;5.842;2023-08-17T03:23:02;3.05;;;0.90;;
39020;SDS011;25188;51.958;5.842;2023-08-17T03:25:31;5.18;;;0.85;;
39020;SDS011;25188;51.958;5.842;2023-08-17T03:27:57;6.25;;;1.10;;
39020;SDS011;25188;51.958;5.842;2023-08-17T03:30:22;5.95;;;1.17;;
39020;SDS011;25188;51.958;5.842;2023-08-17T03:32:48;8.02;;;1.38;;
39020;SDS011;25188;51.958;5.842;2023-08-17T03:35:13;9.23;;;1.08;;
39020;SDS011;25188;51.958;5.842;2023-08-17T03:37:39;5.47;;;1.15;;
39020;SDS011;25188;51.958;5.842;2023-08-17T03:40:05;4.35;;;1.00;;
39020;SDS011;25188;51.958;5.842;2023-08-17T03:42:31;4.75;;;1.27;;
39020;SDS011;25188;51.958;5.842;2023-08-17T03:44:56;2.75;;;0.80;;
39020;SDS011;25188;51.958;5.842;2023-08-17T03:47:22;4.32;;;1.35;;
39020;SDS011;25188;51.958;5.842;2023-08-17T03:49:48;5.00;;;1.13;;
39020;SDS011;25188;51.958;5.842;2023-08-17T03:52:13;4.38;;;1.20;;
39020;SDS011;25188;51.958;5.842;2023-08-17T03:54:39;3.50;;;0.95;;
39020;SDS011;25188;51.958;5.842;2023-08-17T03:57:05;5.22;;;1.25;;
39020;SDS011;25188;51.958;5.842;2023-08-17T03:59:31;4.45;;;1.23;;
39020;SDS011;25188;51.958;5.842;2023-08-17T04:01:56;4.15;;;1.10;;
39020;SDS011;25188;51.958;5.842;2023-08-17T04:04:22;4.78;;;1.20;;
39020;SDS011;25188;51.958;5.842;2023-08-17T04:06:47;6.13;;;1.10;;
39020;SDS011;25188;51.958;5.842;2023-08-17T04:09:13;3.83;;;1.35;;
39020;SDS011;25188;51.958;5.842;2023-08-17T04:11:39;3.83;;;0.80;;
39020;SDS011;25188;51.958;5.842;2023-08-17T04:14:04;3.20;;;1.05;;
39020;SDS011;25188;51.958;5.842;2023-08-17T04:16:30;2.47;;;0.82;;
39020;SDS011;25188;51.958;5.842;2023-08-17T04:18:56;4.95;;;1.38;;
39020;SDS011;25188;51.958;5.842;2023-08-17T04:21:22;4.75;;;1.13;;
39020;SDS011;25188;51.958;5.842;2023-08-17T04:23:48;4.40;;;1.40;;
39020;SDS011;25188;51.958;5.842;2023-08-17T04:26:13;8.20;;;1.42;;
39020;SDS011;25188;51.958;5.842;2023-08-17T04:28:39;8.25;;;1.33;;
39020;SDS011;25188;51.958;5.842;2023-08-17T04:31:04;4.97;;;1.23;;
39020;SDS011;25188;51.958;5.842;2023-08-17T04:33:31;4.30;;;1.00;;
39020;SDS011;25188;51.958;5.842;2023-08-17T04:35:56;5.38;;;1.20;;
39020;SDS011;25188;51.958;5.842;2023-08-17T04:38:24;3.38;;;0.80;;
39020;SDS011;25188;51.958;5.842;2023-08-17T04:40:50;4.88;;;1.27;;
39020;SDS011;25188;51.958;5.842;2023-08-17T04:43:15;3.17;;;1.00;;
39020;SDS011;25188;51.958;5.842;2023-08-17T04:45:41;2.55;;;0.85;;
39020;SDS011;25188;51.958;5.842;2023-08-17T04:48:07;3.38;;;0.80;;
39020;SDS011;25188;51.958;5.842;2023-08-17T04:50:33;2.70;;;0.88;;
39020;SDS011;25188;51.958;5.842;2023-08-17T04:52:58;5.55;;;1.15;;
39020;SDS011;25188;51.958;5.842;2023-08-17T04:55:24;3.35;;;0.85;;
39020;SDS011;25188;51.958;5.842;2023-08-17T04:57:49;6.53;;;1.17;;
39020;SDS011;25188;51.958;5.842;2023-08-17T05:00:15;5.70;;;1.20;;
39020;SDS011;25188;51.958;5.842;2023-08-17T05:02:41;5.97;;;1.20;;
39020;SDS011;25188;51.958;5.842;2023-08-17T05:05:09;2.58;;;1.15;;
39020;SDS011;25188;51.958;5.842;2023-08-17T05:07:35;2.40;;;0.80;;
39020;SDS011;25188;51.958;5.842;2023-08-17T05:10:01;6.78;;;1.40;;
39020;SDS011;25188;51.958;5.842;2023-08-17T05:12:27;5.85;;;1.02;;
39020;SDS011;25188;51.958;5.842;2023-08-17T05:14:53;4.43;;;0.93;;
39020;SDS011;25188;51.958;5.842;2023-08-17T05:17:19;4.88;;;0.90;;
39020;SDS011;25188;51.958;5.842;2023-08-17T05:19:44;2.47;;;0.77;;
39020;SDS011;25188;51.958;5.842;2023-08-17T05:22:11;3.33;;;0.80;;
39020;SDS011;25188;51.958;5.842;2023-08-17T05:24:38;6.20;;;1.00;;
39020;SDS011;25188;51.958;5.842;2023-08-17T05:27:04;4.43;;;0.98;;
39020;SDS011;25188;51.958;5.842;2023-08-17T05:29:30;6.13;;;0.90;;
39020;SDS011;25188;51.958;5.842;2023-08-17T05:31:58;7.53;;;1.00;;
39020;SDS011;25188;51.958;5.842;2023-08-17T05:34:24;3.25;;;0.88;;
39020;SDS011;25188;51.958;5.842;2023-08-17T05:36:50;4.88;;;0.73;;
39020;SDS011;25188;51.958;5.842;2023-08-17T05:39:15;7.55;;;0.98;;
39020;SDS011;25188;51.958;5.842;2023-08-17T05:41:41;5.03;;;0.90;;
39020;SDS011;25188;51.958;5.842;2023-08-17T05:44:06;2.33;;;0.90;;
39020;SDS011;25188;51.958;5.842;2023-08-17T05:46:32;6.97;;;0.98;;
39020;SDS011;25188;51.958;5.842;2023-08-17T05:48:59;3.30;;;0.75;;
39020;SDS011;25188;51.958;5.842;2023-08-17T05:51:25;2.63;;;0.60;;
39020;SDS011;25188;51.958;5.842;2023-08-17T05:53:51;2.30;;;1.02;;
39020;SDS011;25188;51.958;5.842;2023-08-17T05:56:16;4.13;;;1.00;;
39020;SDS011;25188;51.958;5.842;2023-08-17T05:58:42;2.28;;;0.80;;
39020;SDS011;25188;51.958;5.842;2023-08-17T06:01:08;3.85;;;0.82;;
39020;SDS011;25188;51.958;5.842;2023-08-17T06:03:35;2.90;;;0.80;;
39020;SDS011;25188;51.958;5.842;2023-08-17T06:06:02;8.00;;;1.20;;
39020;SDS011;25188;51.958;5.842;2023-08-17T06:08:31;3.40;;;0.95;;
39020;SDS011;25188;51.958;5.842;2023-08-17T06:10:56;3.38;;;1.00;;
39020;SDS011;25188;51.958;5.842;2023-08-17T06:13:22;3.88;;;0.98;;
39020;SDS011;25188;51.958;5.842;2023-08-17T06:15:48;3.72;;;1.10;;
39020;SDS011;25188;51.958;5.842;2023-08-17T06:18:13;3.47;;;1.08;;
39020;SDS011;25188;51.958;5.842;2023-08-17T06:20:39;3.58;;;0.98;;
39020;SDS011;25188;51.958;5.842;2023-08-17T06:23:05;5.15;;;1.35;;
39020;SDS011;25188;51.958;5.842;2023-08-17T06:25:30;5.28;;;1.20;;
39020;SDS011;25188;51.958;5.842;2023-08-17T06:27:56;3.35;;;0.60;;
39020;SDS011;25188;51.958;5.842;2023-08-17T06:30:22;4.22;;;0.95;;
39020;SDS011;25188;51.958;5.842;2023-08-17T06:32:48;5.32;;;0.80;;
39020;SDS011;25188;51.958;5.842;2023-08-17T06:35:15;4.38;;;0.77;;
39020;SDS011;25188;51.958;5.842;2023-08-17T06:37:41;3.72;;;0.95;;
39020;SDS011;25188;51.958;5.842;2023-08-17T06:40:07;4.00;;;0.80;;
39020;SDS011;25188;51.958;5.842;2023-08-17T06:42:36;8.23;;;1.48;;
39020;SDS011;25188;51.958;5.842;2023-08-17T06:45:02;2.58;;;0.70;;
39020;SDS011;25188;51.958;5.842;2023-08-17T06:47:28;5.28;;;0.80;;
39020;SDS011;25188;51.958;5.842;2023-08-17T06:49:54;4.03;;;1.10;;
39020;SDS011;25188;51.958;5.842;2023-08-17T06:52:22;3.92;;;1.00;;
39020;SDS011;25188;51.958;5.842;2023-08-17T06:54:48;4.10;;;1.08;;
39020;SDS011;25188;51.958;5.842;2023-08-17T06:57:14;2.70;;;1.08;;
39020;SDS011;25188;51.958;5.842;2023-08-17T06:59:39;2.22;;;0.80;;
39020;SDS011;25188;51.958;5.842;2023-08-17T07:02:05;2.85;;;0.75;;
39020;SDS011;25188;51.958;5.842;2023-08-17T07:04:31;4.93;;;1.13;;
39020;SDS011;25188;51.958;5.842;2023-08-17T07:06:57;3.55;;;0.80;;
39020;SDS011;25188;51.958;5.842;2023-08-17T07:09:22;4.03;;;0.85;;
39020;SDS011;25188;51.958;5.842;2023-08-17T07:11:48;4.45;;;0.98;;
39020;SDS011;25188;51.958;5.842;2023-08-17T07:14:13;4.07;;;0.80;;
39020;SDS011;25188;51.958;5.842;2023-08-17T07:16:39;4.82;;;0.95;;
39020;SDS011;25188;51.958;5.842;2023-08-17T07:19:05;5.43;;;1.00;;
39020;SDS011;25188;51.958;5.842;2023-08-17T07:21:30;4.15;;;0.80;;
39020;SDS011;25188;51.958;5.842;2023-08-17T07:23:56;4.50;;;0.70;;
39020;SDS011;25188;51.958;5.842;2023-08-17T07:26:22;7.38;;;1.65;;
39020;SDS011;25188;51.958;5.842;2023-08-17T07:28:48;5.95;;;1.00;;
39020;SDS011;25188;51.958;5.842;2023-08-17T07:31:14;7.05;;;1.00;;
39020;SDS011;25188;51.958;5.842;2023-08-17T07:33:41;6.38;;;1.52;;
39020;SDS011;25188;51.958;5.842;2023-08-17T07:36:06;6.38;;;1.13;;
39020;SDS011;25188;51.958;5.842;2023-08-17T07:38:32;5.88;;;1.10;;
39020;SDS011;25188;51.958;5.842;2023-08-17T07:40:58;5.82;;;1.02;;
39020;SDS011;25188;51.958;5.842;2023-08-17T07:43:23;6.65;;;1.35;;
39020;SDS011;25188;51.958;5.842;2023-08-17T07:45:53;3.47;;;1.00;;
39020;SDS011;25188;51.958;5.842;2023-08-17T07:48:19;4.68;;;1.00;;
39020;SDS011;25188;51.958;5.842;2023-08-17T07:50:48;7.13;;;1.15;;
39020;SDS011;25188;51.958;5.842;2023-08-17T07:53:17;6.80;;;1.20;;
39020;SDS011;25188;51.958;5.842;2023-08-17T07:55:43;4.75;;;1.02;;
39020;SDS011;25188;51.958;5.842;2023-08-17T07:58:09;4.10;;;1.02;;
39020;SDS011;25188;51.958;5.842;2023-08-17T08:00:35;4.38;;;1.10;;
39020;SDS011;25188;51.958;5.842;2023-08-17T08:03:01;3.17;;;0.93;;
39020;SDS011;25188;51.958;5.842;2023-08-17T08:05:26;6.38;;;1.30;;
39020;SDS011;25188;51.958;5.842;2023-08-17T08:07:52;3.55;;;0.88;;
39020;SDS011;25188;51.958;5.842;2023-08-17T08:10:18;3.50;;;0.88;;
39020;SDS011;25188;51.958;5.842;2023-08-17T08:12:43;5.82;;;1.23;;
39020;SDS011;25188;51.958;5.842;2023-08-17T08:15:09;3.88;;;0.95;;
39020;SDS011;25188;51.958;5.842;2023-08-17T08:17:35;6.97;;;1.38;;
39020;SDS011;25188;51.958;5.842;2023-08-17T08:20:01;5.50;;;1.00;;
39020;SDS011;25188;51.958;5.842;2023-08-17T08:22:27;3.22;;;0.90;;
39020;SDS011;25188;51.958;5.842;2023-08-17T08:24:52;5.80;;;1.00;;
39020;SDS011;25188;51.958;5.842;2023-08-17T08:27:18;4.28;;;0.80;;
39020;SDS011;25188;51.958;5.842;2023-08-17T08:29:43;6.78;;;1.35;;
39020;SDS011;25188;51.958;5.842;2023-08-17T08:32:09;4.30;;;1.00;;
39020;SDS011;25188;51.958;5.842;2023-08-17T08:34:35;3.45;;;1.02;;
39020;SDS011;25188;51.958;5.842;2023-08-17T08:37:00;3.50;;;1.08;;
39020;SDS011;25188;51.958;5.842;2023-08-17T08:39:26;3.65;;;0.82;;
39020;SDS011;25188;51.958;5.842;2023-08-17T08:41:52;4.57;;;1.10;;
39020;SDS011;25188;51.958;5.842;2023-08-17T08:44:18;6.03;;;1.98;;
39020;SDS011;25188;51.958;5.842;2023-08-17T08:46:44;4.07;;;1.30;;
39020;SDS011;25188;51.958;5.842;2023-08-17T08:49:11;4.72;;;1.33;;
39020;SDS011;25188;51.958;5.842;2023-08-17T08:51:48;3.92;;;1.05;;
39020;SDS011;25188;51.958;5.842;2023-08-17T08:54:25;5.25;;;1.33;;
39020;SDS011;25188;51.958;5.842;2023-08-17T08:56:54;5.75;;;1.58;;
39020;SDS011;25188;51.958;5.842;2023-08-17T08:59:26;4.78;;;1.23;;
39020;SDS011;25188;51.958;5.842;2023-08-17T09:01:53;5.50;;;1.35;;
39020;SDS011;25188;51.958;5.842;2023-08-17T09:04:21;6.15;;;1.65;;
39020;SDS011;25188;51.958;5.842;2023-08-17T09:06:48;5.63;;;1.65;;
39020;SDS011;25188;51.958;5.842;2023-08-17T09:09:15;4.95;;;1.55;;
39020;SDS011;25188;51.958;5.842;2023-08-17T09:11:42;4.68;;;1.48;;
39020;SDS011;25188;51.958;5.842;2023-08-17T09:14:08;4.28;;;1.50;;
39020;SDS011;25188;51.958;5.842;2023-08-17T09:16:34;3.80;;;1.30;;
39020;SDS011;25188;51.958;5.842;2023-08-17T09:19:01;5.93;;;1.90;;
39020;SDS011;25188;51.958;5.842;2023-08-17T09:21:30;5.15;;;1.30;;
39020;SDS011;25188;51.958;5.842;2023-08-17T09:23:57;6.22;;;2.17;;
39020;SDS011;25188;51.958;5.842;2023-08-17T09:26:23;6.85;;;2.58;;
39020;SDS011;25188;51.958;5.842;2023-08-17T09:28:49;7.15;;;2.50;;
39020;SDS011;25188;51.958;5.842;2023-08-17T09:31:15;8.20;;;2.55;;
39020;SDS011;25188;51.958;5.842;2023-08-17T09:33:41;5.50;;;2.03;;
39020;SDS011;25188;51.958;5.842;2023-08-17T09:36:06;4.70;;;2.08;;
39020;SDS011;25188;51.958;5.842;2023-08-17T09:38:36;6.82;;;2.50;;
39020;SDS011;25188;51.958;5.842;2023-08-17T09:41:03;11.93;;;2.42;;
39020;SDS011;25188;51.958;5.842;2023-08-17T09:43:30;6.15;;;2.30;;
39020;SDS011;25188;51.958;5.842;2023-08-17T09:45:58;10.10;;;2.45;;
39020;SDS011;25188;51.958;5.842;2023-08-17T09:48:27;7.18;;;2.50;;
39020;SDS011;25188;51.958;5.842;2023-08-17T09:50:53;8.75;;;2.22;;
39020;SDS011;25188;51.958;5.842;2023-08-17T09:53:21;6.35;;;2.08;;
39020;SDS011;25188;51.958;5.842;2023-08-17T09:55:47;7.13;;;2.45;;
39020;SDS011;25188;51.958;5.842;2023-08-17T09:58:13;6.88;;;2.08;;
39020;SDS011;25188;51.958;5.842;2023-08-17T10:00:49;9.50;;;3.22;;
39020;SDS011;25188;51.958;5.842;2023-08-17T10:03:16;6.47;;;2.22;;
39020;SDS011;25188;51.958;5.842;2023-08-17T10:05:43;5.35;;;2.38;;
39020;SDS011;25188;51.958;5.842;2023-08-17T10:08:13;6.93;;;2.58;;
39020;SDS011;25188;51.958;5.842;2023-08-17T10:10:44;7.25;;;2.70;;
39020;SDS011;25188;51.958;5.842;2023-08-17T10:13:12;5.80;;;2.28;;
39020;SDS011;25188;51.958;5.842;2023-08-17T10:21:48;6.87;;;2.33;;
39020;SDS011;25188;51.958;5.842;2023-08-17T10:24:28;4.65;;;2.30;;
39020;SDS011;25188;51.958;5.842;2023-08-17T10:26:58;7.38;;;2.67;;
39020;SDS011;25188;51.958;5.842;2023-08-17T10:29:24;5.30;;;2.28;;
39020;SDS011;25188;51.958;5.842;2023-08-17T10:31:51;8.07;;;2.85;;
39020;SDS011;25188;51.958;5.842;2023-08-17T10:34:17;5.13;;;2.10;;
39020;SDS011;25188;51.958;5.842;2023-08-17T10:36:44;6.82;;;2.33;;
39020;SDS011;25188;51.958;5.842;2023-08-17T10:39:18;8.75;;;3.28;;
39020;SDS011;25188;51.958;5.842;2023-08-17T10:41:46;6.80;;;2.55;;
39020;SDS011;25188;51.958;5.842;2023-08-17T10:44:13;7.05;;;2.35;;
39020;SDS011;25188;51.958;5.842;2023-08-17T10:46:39;8.63;;;2.78;;
39020;SDS011;25188;51.958;5.842;2023-08-17T10:49:07;6.97;;;2.53;;
39020;SDS011;25188;51.958;5.842;2023-08-17T10:52:06;7.82;;;2.80;;
39020;SDS011;25188;51.958;5.842;2023-08-17T10:54:39;6.88;;;2.53;;
39020;SDS011;25188;51.958;5.842;2023-08-17T11:03:00;5.78;;;2.35;;
39020;SDS011;25188;51.958;5.842;2023-08-17T11:05:42;8.88;;;2.65;;
39020;SDS011;25188;51.958;5.842;2023-08-17T11:08:27;7.95;;;2.78;;
39020;SDS011;25188;51.958;5.842;2023-08-17T11:13:40;8.23;;;2.78;;
39020;SDS011;25188;51.958;5.842;2023-08-17T11:16:08;8.63;;;2.92;;
39020;SDS011;25188;51.958;5.842;2023-08-17T11:18:35;6.38;;;2.60;;
39020;SDS011;25188;51.958;5.842;2023-08-17T11:21:04;5.53;;;2.92;;
39020;SDS011;25188;51.958;5.842;2023-08-17T11:23:33;6.25;;;1.98;;
39020;SDS011;25188;51.958;5.842;2023-08-17T11:25:59;12.85;;;2.40;;
39020;SDS011;25188;51.958;5.842;2023-08-17T11:28:25;7.95;;;2.55;;
39020;SDS011;25188;51.958;5.842;2023-08-17T11:30:58;6.10;;;2.42;;
39020;SDS011;25188;51.958;5.842;2023-08-17T11:33:25;8.20;;;2.55;;
39020;SDS011;25188;51.958;5.842;2023-08-17T11:35:53;5.18;;;2.33;;
39020;SDS011;25188;51.958;5.842;2023-08-17T11:38:22;7.30;;;2.40;;
39020;SDS011;25188;51.958;5.842;2023-08-17T11:40:51;6.78;;;2.60;;
39020;SDS011;25188;51.958;5.842;2023-08-17T11:43:18;5.07;;;2.13;;
39020;SDS011;25188;51.958;5.842;2023-08-17T11:45:45;6.13;;;2.75;;
39020;SDS011;25188;51.958;5.842;2023-08-17T11:48:11;5.93;;;2.63;;
39020;SDS011;25188;51.958;5.842;2023-08-17T11:50:37;5.93;;;2.42;;
39020;SDS011;25188;51.958;5.842;2023-08-17T11:53:04;4.97;;;2.28;;
39020;SDS011;25188;51.958;5.842;2023-08-17T11:55:30;7.47;;;2.50;;
39020;SDS011;25188;51.958;5.842;2023-08-17T11:57:56;5.97;;;2.13;;
39020;SDS011;25188;51.958;5.842;2023-08-17T12:00:21;6.13;;;2.70;;
39020;SDS011;25188;51.958;5.842;2023-08-17T12:02:51;6.55;;;2.33;;
39020;SDS011;25188;51.958;5.842;2023-08-17T12:05:21;6.97;;;2.22;;
39020;SDS011;25188;51.958;5.842;2023-08-17T12:07:48;5.90;;;2.28;;
39020;SDS011;25188;51.958;5.842;2023-08-17T12:10:14;5.80;;;1.90;;
39020;SDS011;25188;51.958;5.842;2023-08-17T12:12:40;6.03;;;2.10;;
39020;SDS011;25188;51.958;5.842;2023-08-17T12:15:06;5.45;;;2.08;;
39020;SDS011;25188;51.958;5.842;2023-08-17T12:17:32;4.88;;;2.05;;
39020;SDS011;25188;51.958;5.842;2023-08-17T12:19:58;5.90;;;2.20;;
39020;SDS011;25188;51.958;5.842;2023-08-17T12:22:25;7.78;;;2.55;;
39020;SDS011;25188;51.958;5.842;2023-08-17T12:24:52;6.32;;;2.20;;
39020;SDS011;25188;51.958;5.842;2023-08-17T12:27:18;7.00;;;2.10;;
39020;SDS011;25188;51.958;5.842;2023-08-17T12:29:47;6.28;;;2.10;;
39020;SDS011;25188;51.958;5.842;2023-08-17T12:32:16;4.18;;;2.28;;
39020;SDS011;25188;51.958;5.842;2023-08-17T12:34:43;5.72;;;2.17;;
39020;SDS011;25188;51.958;5.842;2023-08-17T12:37:09;6.05;;;2.53;;
39020;SDS011;25188;51.958;5.842;2023-08-17T12:39:36;6.25;;;2.08;;
39020;SDS011;25188;51.958;5.842;2023-08-17T12:42:02;5.05;;;2.55;;
39020;SDS011;25188;51.958;5.842;2023-08-17T12:44:28;6.05;;;2.40;;
39020;SDS011;25188;51.958;5.842;2023-08-17T12:46:54;5.82;;;2.58;;
39020;SDS011;25188;51.958;5.842;2023-08-17T12:49:20;6.88;;;2.83;;
39020;SDS011;25188;51.958;5.842;2023-08-17T12:51:45;6.63;;;2.70;;
39020;SDS011;25188;51.958;5.842;2023-08-17T12:54:11;6.22;;;3.00;;
39020;SDS011;25188;51.958;5.842;2023-08-17T12:56:36;5.03;;;2.70;;
39020;SDS011;25188;51.958;5.842;2023-08-17T12:59:02;5.68;;;2.90;;
39020;SDS011;25188;51.958;5.842;2023-08-17T13:01:28;8.27;;;2.92;;
39020;SDS011;25188;51.958;5.842;2023-08-17T13:03:53;5.38;;;2.40;;
39020;SDS011;25188;51.958;5.842;2023-08-17T13:06:19;5.07;;;2.17;;
39020;SDS011;25188;51.958;5.842;2023-08-17T13:08:45;5.10;;;2.20;;
39020;SDS011;25188;51.958;5.842;2023-08-17T13:11:11;4.40;;;2.13;;
39020;SDS011;25188;51.958;5.842;2023-08-17T13:13:37;5.95;;;2.70;;
39020;SDS011;25188;51.958;5.842;2023-08-17T13:16:03;8.20;;;2.65;;
39020;SDS011;25188;51.958;5.842;2023-08-17T13:18:29;5.90;;;2.65;;
39020;SDS011;25188;51.958;5.842;2023-08-17T13:20:54;6.00;;;2.58;;
39020;SDS011;25188;51.958;5.842;2023-08-17T13:23:20;5.65;;;2.63;;
39020;SDS011;25188;51.958;5.842;2023-08-17T13:25:46;5.97;;;2.70;;
39020;SDS011;25188;51.958;5.842;2023-08-17T13:28:11;5.90;;;2.92;;
39020;SDS011;25188;51.958;5.842;2023-08-17T13:30:40;10.55;;;3.83;;
39020;SDS011;25188;51.958;5.842;2023-08-17T13:33:06;9.65;;;3.90;;
39020;SDS011;25188;51.958;5.842;2023-08-17T13:35:32;8.13;;;3.08;;
39020;SDS011;25188;51.958;5.842;2023-08-17T13:37:58;7.07;;;2.78;;
39020;SDS011;25188;51.958;5.842;2023-08-17T13:40:24;5.70;;;2.63;;
39020;SDS011;25188;51.958;5.842;2023-08-17T13:42:50;6.05;;;2.70;;
39020;SDS011;25188;51.958;5.842;2023-08-17T13:45:16;6.55;;;3.00;;
39020;SDS011;25188;51.958;5.842;2023-08-17T13:47:42;7.22;;;2.85;;
39020;SDS011;25188;51.958;5.842;2023-08-17T13:50:08;6.82;;;3.30;;
39020;SDS011;25188;51.958;5.842;2023-08-17T13:52:33;6.80;;;3.28;;
39020;SDS011;25188;51.958;5.842;2023-08-17T13:54:59;8.63;;;3.42;;
39020;SDS011;25188;51.958;5.842;2023-08-17T13:57:25;7.70;;;2.97;;
39020;SDS011;25188;51.958;5.842;2023-08-17T13:59:51;8.45;;;3.40;;
39020;SDS011;25188;51.958;5.842;2023-08-17T14:02:17;5.45;;;3.03;;
39020;SDS011;25188;51.958;5.842;2023-08-17T14:04:43;9.48;;;2.67;;
39020;SDS011;25188;51.958;5.842;2023-08-17T14:07:09;5.95;;;2.53;;
39020;SDS011;25188;51.958;5.842;2023-08-17T14:09:36;6.53;;;2.92;;
39020;SDS011;25188;51.958;5.842;2023-08-17T14:12:02;3.92;;;2.15;;
39020;SDS011;25188;51.958;5.842;2023-08-17T14:14:30;5.40;;;2.17;;
39020;SDS011;25188;51.958;5.842;2023-08-17T14:16:55;4.43;;;1.90;;
39020;SDS011;25188;51.958;5.842;2023-08-17T14:19:22;6.40;;;3.00;;
39020;SDS011;25188;51.958;5.842;2023-08-17T14:21:48;6.88;;;2.40;;
39020;SDS011;25188;51.958;5.842;2023-08-17T14:24:13;5.53;;;2.80;;
39020;SDS011;25188;51.958;5.842;2023-08-17T14:26:39;5.57;;;2.58;;
39020;SDS011;25188;51.958;5.842;2023-08-17T14:29:05;5.38;;;2.60;;
39020;SDS011;25188;51.958;5.842;2023-08-17T14:31:31;6.95;;;2.83;;
39020;SDS011;25188;51.958;5.842;2023-08-17T14:33:56;6.15;;;2.88;;
39020;SDS011;25188;51.958;5.842;2023-08-17T14:36:22;6.57;;;2.47;;
39020;SDS011;25188;51.958;5.842;2023-08-17T14:38:47;4.35;;;2.72;;
39020;SDS011;25188;51.958;5.842;2023-08-17T14:41:13;5.43;;;2.53;;
39020;SDS011;25188;51.958;5.842;2023-08-17T14:43:39;5.90;;;2.90;;
39020;SDS011;25188;51.958;5.842;2023-08-17T14:46:04;6.97;;;2.80;;
39020;SDS011;25188;51.958;5.842;2023-08-17T14:48:30;10.32;;;2.80;;
39020;SDS011;25188;51.958;5.842;2023-08-17T14:50:56;5.85;;;2.60;;
39020;SDS011;25188;51.958;5.842;2023-08-17T14:53:21;5.72;;;2.17;;
39020;SDS011;25188;51.958;5.842;2023-08-17T14:55:47;8.57;;;3.10;;
39020;SDS011;25188;51.958;5.842;2023-08-17T14:58:12;5.03;;;2.78;;
39020;SDS011;25188;51.958;5.842;2023-08-17T15:00:39;4.65;;;2.97;;
39020;SDS011;25188;51.958;5.842;2023-08-17T15:03:04;5.05;;;2.90;;
39020;SDS011;25188;51.958;5.842;2023-08-17T15:05:30;8.60;;;3.47;;